Terminal Aerodrome Forecast
Issued by NWS

Home | Current Version | Previous Version | Text Only | Print | Product List | Glossary On
Versions: 1 2 3 4 5 6 7 8 9 10 11 12 13 14 15 16 17
000
FTUS45 KGJT 241732
TAFCNY
TAF
KCNY 241732Z 2418/2518 33010G15KT P6SM SKC
     FM242100 29008KT P6SM SKC
     FM250400 16004KT P6SM FEW250
     FM251000 12005KT P6SM SCT200
     FM251600 13006KT P6SM OVC100=

USA.gov is the U.S. government's official web portal to all federal, state and local government web resources and services.